createdAt,value
2022-10-05T00:01:55.579Z,15.20
2022-10-05T00:04:24.669Z,15.20
2022-10-05T00:06:58.201Z,15.20
2022-10-05T00:09:25.168Z,15.20
2022-10-05T00:12:11.710Z,15.20
2022-10-05T00:14:39.427Z,15.20
2022-10-05T00:17:07.227Z,15.20
2022-10-05T00:25:28.212Z,15.20
2022-10-05T00:53:30.051Z,15.20
2022-10-05T00:56:34.284Z,15.10
2022-10-05T00:59:31.985Z,15.10
2022-10-05T01:02:26.089Z,15.10
2022-10-05T01:05:12.464Z,15.10
2022-10-05T01:16:24.921Z,15.10
2022-10-05T01:27:12.599Z,15.10
2022-10-05T01:30:03.440Z,15.10
2022-10-05T01:32:51.070Z,15.00
2022-10-05T01:35:24.209Z,15.00
2022-10-05T01:37:58.068Z,14.90
2022-10-05T01:43:30.730Z,14.90
2022-10-05T01:46:43.284Z,14.90
2022-10-05T01:52:54.800Z,14.80
2022-10-05T01:58:28.037Z,14.70
2022-10-05T02:01:09.755Z,14.70
2022-10-05T02:07:14.399Z,14.70
2022-10-05T02:10:08.025Z,14.70
2022-10-05T02:12:38.166Z,14.70
2022-10-05T02:15:13.745Z,14.70
2022-10-05T02:18:02.286Z,14.70
2022-10-05T02:20:40.863Z,14.60
2022-10-05T02:23:22.264Z,14.60
2022-10-05T02:26:00.981Z,14.60
2022-10-05T02:28:58.632Z,14.60
2022-10-05T02:34:51.437Z,14.50
2022-10-05T02:57:03.745Z,14.30
2022-10-05T02:59:40.288Z,14.20
2022-10-05T03:02:16.963Z,14.20
2022-10-05T03:05:12.846Z,14.20
2022-10-05T03:07:43.494Z,14.20
2022-10-05T03:10:34.098Z,14.20
2022-10-05T03:19:28.897Z,14.30
2022-10-05T03:22:28.916Z,14.30
2022-10-05T03:25:30.571Z,14.30
2022-10-05T03:28:08.919Z,14.30
2022-10-05T03:31:04.371Z,14.30
2022-10-05T03:37:26.755Z,14.30
2022-10-05T03:43:51.235Z,14.40
2022-10-05T03:46:52.944Z,14.40
2022-10-05T03:49:47.209Z,14.40
2022-10-05T03:52:26.323Z,14.40
2022-10-05T03:55:52.987Z,14.50
2022-10-05T03:58:32.799Z,14.40
2022-10-05T04:01:05.803Z,14.50
2022-10-05T04:03:43.881Z,14.50
2022-10-05T04:06:37.820Z,14.50
2022-10-05T04:12:43.911Z,14.50
2022-10-05T04:17:54.563Z,14.50
2022-10-05T04:20:47.563Z,14.50
2022-10-05T04:23:56.529Z,14.50
2022-10-05T04:26:52.416Z,14.50
2022-10-05T04:29:48.866Z,14.50
2022-10-05T04:32:39.488Z,14.50
2022-10-05T04:35:24.322Z,14.60
2022-10-05T04:38:11.607Z,14.60
2022-10-05T04:41:14.682Z,14.60
2022-10-05T04:44:08.673Z,14.60
2022-10-05T04:46:50.269Z,14.60
2022-10-05T04:49:23.911Z,14.60
2022-10-05T04:52:18.539Z,14.60
2022-10-05T04:54:54.036Z,14.60
2022-10-05T04:57:44.360Z,14.60
2022-10-05T05:00:21.147Z,14.60
2022-10-05T05:03:06.250Z,14.70
2022-10-05T05:06:16.940Z,14.60
2022-10-05T05:09:21.592Z,14.70
2022-10-05T05:12:07.444Z,14.70
2022-10-05T05:14:59.941Z,14.60
2022-10-05T05:17:32.612Z,14.60
2022-10-05T05:20:23.591Z,14.60
2022-10-05T05:23:01.842Z,14.70
2022-10-05T05:25:35.753Z,14.60
2022-10-05T05:28:29.642Z,14.70
2022-10-05T05:31:16.512Z,14.70
2022-10-05T05:34:00.523Z,14.70
2022-10-05T05:36:35.140Z,14.70
2022-10-05T05:39:21.329Z,14.70
2022-10-05T05:42:16.224Z,14.70
2022-10-05T05:44:48.065Z,14.70
2022-10-05T05:47:19.908Z,14.70
2022-10-05T05:50:08.786Z,14.70
2022-10-05T05:52:41.111Z,14.70
2022-10-05T05:55:20.775Z,14.70
2022-10-05T05:57:54.332Z,14.70
2022-10-05T06:00:36.426Z,14.60
2022-10-05T06:03:43.059Z,14.60
2022-10-05T06:06:13.300Z,14.60
2022-10-05T06:08:43.093Z,14.60
2022-10-05T06:11:50.487Z,14.70
2022-10-05T06:14:31.645Z,14.70
2022-10-05T06:17:05.002Z,14.70
2022-10-05T06:19:34.188Z,14.70
2022-10-05T06:22:18.573Z,14.70
2022-10-05T06:25:06.660Z,14.70
2022-10-05T06:28:11.522Z,14.70
2022-10-05T06:31:20.391Z,14.70
2022-10-05T06:33:51.370Z,14.70
2022-10-05T06:36:41.475Z,14.70
2022-10-05T06:39:24.270Z,14.70
2022-10-05T06:42:18.750Z,14.70
2022-10-05T06:45:15.060Z,14.70
2022-10-05T06:48:25.154Z,14.80
2022-10-05T06:51:04.188Z,14.80
2022-10-05T06:54:04.569Z,14.80
2022-10-05T06:56:45.160Z,14.80
2022-10-05T06:59:40.753Z,14.80
2022-10-05T07:02:41.475Z,14.80
2022-10-05T07:05:39.291Z,14.80
2022-10-05T07:08:27.049Z,14.80
2022-10-05T07:11:02.213Z,14.80
2022-10-05T07:13:57.099Z,14.80
2022-10-05T07:16:58.399Z,14.80
2022-10-05T07:19:39.722Z,14.80
2022-10-05T07:22:34.212Z,14.80
2022-10-05T07:25:15.584Z,14.80
2022-10-05T07:28:00.319Z,14.80
2022-10-05T07:30:26.990Z,14.80
2022-10-05T07:32:59.098Z,14.80
2022-10-05T07:35:44.507Z,14.80
2022-10-05T07:38:47.381Z,14.80
2022-10-05T07:41:21.388Z,14.80
2022-10-05T07:44:24.981Z,14.90
2022-10-05T07:47:05.205Z,14.90
2022-10-05T07:49:46.132Z,14.90
2022-10-05T07:52:25.134Z,14.90
2022-10-05T07:55:06.274Z,14.90
2022-10-05T07:57:53.056Z,14.90
2022-10-05T08:00:22.546Z,14.90
2022-10-05T08:03:01.715Z,14.90
2022-10-05T08:05:31.327Z,14.90
2022-10-05T08:08:20.425Z,15.00
2022-10-05T08:11:04.924Z,15.00
2022-10-05T08:13:39.126Z,15.00
2022-10-05T08:16:10.639Z,15.00
2022-10-05T08:18:51.749Z,15.00
2022-10-05T08:21:25.508Z,15.00
2022-10-05T08:24:15.916Z,15.10
2022-10-05T08:27:10.849Z,15.10
2022-10-05T08:30:01.743Z,15.10
2022-10-05T08:33:02.289Z,15.10
2022-10-05T08:35:40.502Z,15.10
2022-10-05T08:38:28.896Z,15.20
2022-10-05T08:41:09.382Z,15.20
2022-10-05T08:51:29.645Z,15.20
2022-10-05T08:58:16.873Z,15.30
2022-10-05T09:37:01.779Z,15.90
2022-10-05T09:40:01.556Z,15.90
2022-10-05T09:42:47.812Z,15.90
2022-10-05T09:45:38.742Z,16.00
2022-10-05T09:52:08.469Z,16.10
2022-10-05T09:54:47.050Z,16.20
2022-10-05T09:57:49.378Z,16.20
2022-10-05T10:00:19.028Z,16.20
2022-10-05T10:03:12.199Z,16.20
2022-10-05T10:06:16.589Z,16.20
2022-10-05T10:08:49.310Z,16.20
2022-10-05T10:11:46.865Z,16.20
2022-10-05T10:14:19.952Z,16.20
2022-10-05T10:17:22.467Z,16.10
2022-10-05T10:20:13.338Z,16.20
2022-10-05T10:22:52.108Z,16.20
2022-10-05T10:25:32.819Z,16.20
2022-10-05T10:28:14.008Z,16.10
2022-10-05T10:31:05.533Z,16.20
2022-10-05T10:33:58.879Z,16.10
2022-10-05T10:36:56.382Z,16.10
2022-10-05T10:39:50.639Z,16.20
2022-10-05T10:42:45.467Z,16.10
2022-10-05T10:45:56.972Z,16.10
2022-10-05T10:48:29.419Z,16.20
2022-10-05T10:51:31.078Z,16.20
2022-10-05T10:58:05.890Z,16.20
2022-10-05T11:00:41.831Z,16.20
2022-10-05T11:03:31.276Z,16.20
2022-10-05T11:06:17.744Z,16.20
2022-10-05T11:09:09.138Z,16.30
2022-10-05T11:12:04.007Z,16.30
2022-10-05T11:14:35.509Z,16.30
2022-10-05T11:17:31.802Z,16.30
2022-10-05T11:20:21.221Z,16.40
2022-10-05T11:23:06.113Z,16.40
2022-10-05T11:25:47.816Z,16.50
2022-10-05T11:38:07.872Z,16.50
2022-10-05T11:41:19.770Z,16.50
2022-10-05T11:44:17.586Z,16.50
2022-10-05T11:47:25.184Z,16.50
2022-10-05T11:50:17.638Z,16.50
2022-10-05T11:56:18.907Z,16.60
2022-10-05T11:59:26.359Z,16.60
2022-10-05T12:08:57.812Z,16.60
2022-10-05T12:11:32.834Z,16.60
2022-10-05T12:14:27.153Z,16.60
2022-10-05T12:17:13.976Z,16.70
2022-10-05T12:20:12.117Z,16.80
2022-10-05T12:22:45.597Z,16.80
2022-10-05T12:25:25.318Z,16.90
2022-10-05T12:28:00.392Z,16.90
2022-10-05T12:30:51.582Z,16.90
2022-10-05T12:33:37.669Z,16.90
2022-10-05T12:36:17.117Z,16.80
2022-10-05T12:39:08.029Z,16.90
2022-10-05T12:41:57.518Z,17.00
2022-10-05T12:44:50.036Z,17.00
2022-10-05T12:47:27.733Z,17.00
2022-10-05T12:50:19.180Z,17.00
2022-10-05T12:53:00.141Z,17.10
2022-10-05T12:55:49.961Z,17.10
2022-10-05T12:58:25.363Z,17.10
2022-10-05T13:01:08.574Z,17.10
2022-10-05T13:03:43.886Z,17.20
2022-10-05T13:06:30.751Z,17.20
2022-10-05T13:09:11.451Z,17.20
2022-10-05T13:11:45.958Z,17.10
2022-10-05T13:14:37.045Z,17.10
2022-10-05T13:17:13.595Z,17.10
2022-10-05T13:19:47.499Z,17.10
2022-10-05T13:22:27.272Z,17.10
2022-10-05T13:25:13.871Z,17.10
2022-10-05T13:28:09.004Z,17.20
2022-10-05T13:30:39.154Z,17.20
2022-10-05T13:33:14.653Z,17.30
2022-10-05T13:38:56.571Z,17.20
2022-10-05T13:41:23.172Z,17.20
2022-10-05T13:44:14.381Z,17.20
2022-10-05T13:46:50.055Z,17.10
2022-10-05T13:49:41.519Z,17.10
2022-10-05T13:52:08.185Z,17.10
2022-10-05T13:54:56.205Z,17.10
2022-10-05T14:01:01.750Z,17.30
2022-10-05T14:03:38.711Z,17.30
2022-10-05T14:06:41.557Z,17.40
2022-10-05T14:09:28.796Z,17.40
2022-10-05T14:12:04.311Z,17.40
2022-10-05T14:14:50.544Z,17.40
2022-10-05T14:17:40.780Z,17.30
2022-10-05T14:20:22.872Z,17.30
2022-10-05T14:23:22.378Z,17.30
2022-10-05T14:26:19.444Z,17.30
2022-10-05T14:29:01.536Z,17.30
2022-10-05T14:31:35.253Z,17.30
2022-10-05T14:35:09.011Z,17.30
2022-10-05T14:38:16.332Z,17.20
2022-10-05T14:40:47.315Z,17.20
2022-10-05T14:43:18.865Z,17.20
2022-10-05T14:46:20.666Z,17.20
2022-10-05T14:48:50.070Z,17.20
2022-10-05T14:51:31.985Z,17.20
2022-10-05T14:54:21.941Z,17.20
2022-10-05T15:00:26.908Z,17.40
2022-10-05T15:06:03.825Z,17.30
2022-10-05T15:12:19.055Z,17.20
2022-10-05T15:18:10.468Z,17.10
2022-10-05T15:24:23.738Z,17.10
2022-10-05T15:27:03.404Z,17.10
2022-10-05T15:30:07.485Z,17.10
2022-10-05T15:49:44.669Z,17.00
2022-10-05T16:11:26.565Z,16.80
2022-10-05T16:14:33.225Z,16.80
2022-10-05T16:17:21.596Z,16.80
2022-10-05T16:20:08.548Z,16.80
2022-10-05T16:22:44.159Z,16.70
2022-10-05T16:25:16.442Z,16.70
2022-10-05T16:28:21.831Z,16.70
2022-10-05T16:30:59.339Z,16.70
2022-10-05T16:33:46.624Z,16.70
2022-10-05T16:36:40.920Z,16.60
2022-10-05T16:39:18.805Z,16.60
2022-10-05T16:42:08.368Z,16.60
2022-10-05T16:45:07.809Z,16.60
2022-10-05T16:48:07.909Z,16.60
2022-10-05T16:50:42.395Z,16.60
2022-10-05T16:53:16.534Z,16.60
2022-10-05T16:55:51.803Z,16.60
2022-10-05T16:58:26.555Z,16.60
2022-10-05T17:01:13.401Z,16.60
2022-10-05T17:03:57.950Z,16.60
2022-10-05T17:06:39.548Z,16.50
2022-10-05T17:09:30.837Z,16.50
2022-10-05T17:12:03.399Z,16.50
2022-10-05T17:14:54.678Z,16.50
2022-10-05T17:17:39.881Z,16.50
2022-10-05T17:20:37.865Z,16.50
2022-10-05T17:23:38.461Z,16.50
2022-10-05T17:26:23.196Z,16.50
2022-10-05T17:29:18.942Z,16.50
2022-10-05T17:32:29.953Z,16.50
2022-10-05T17:34:59.370Z,16.50
2022-10-05T17:37:43.898Z,16.50
2022-10-05T17:40:29.188Z,16.40
2022-10-05T17:43:28.876Z,16.40
2022-10-05T17:46:00.294Z,16.40
2022-10-05T17:48:50.030Z,16.50
2022-10-05T17:51:29.077Z,16.50
2022-10-05T17:53:55.848Z,16.50
2022-10-05T17:56:23.597Z,16.40
2022-10-05T17:58:50.348Z,16.50
2022-10-05T18:01:28.318Z,16.50
2022-10-05T18:04:15.149Z,16.50
2022-10-05T18:06:55.863Z,16.50
2022-10-05T18:09:22.530Z,16.50
2022-10-05T18:12:16.590Z,16.50
2022-10-05T18:14:54.282Z,16.50
2022-10-05T18:17:47.312Z,16.50
2022-10-05T18:20:26.588Z,16.50
2022-10-05T18:23:08.104Z,16.50
2022-10-05T18:25:52.059Z,16.60
2022-10-05T18:28:37.373Z,16.60
2022-10-05T18:31:35.410Z,16.60
2022-10-05T18:34:26.800Z,16.60
2022-10-05T18:37:05.565Z,16.60
2022-10-05T18:39:41.985Z,16.60
2022-10-05T18:42:34.766Z,16.60
2022-10-05T18:45:18.701Z,16.70
2022-10-05T18:48:24.730Z,16.70
2022-10-05T18:50:53.368Z,16.70
2022-10-05T18:53:32.968Z,16.70
2022-10-05T18:56:02.377Z,16.60
2022-10-05T18:58:56.733Z,16.70
2022-10-05T19:01:29.694Z,16.60
2022-10-05T19:04:30.255Z,16.50
2022-10-05T19:07:15.707Z,16.40
2022-10-05T19:10:08.365Z,16.30
2022-10-05T19:12:55.455Z,16.30
2022-10-05T19:15:50.199Z,16.20
2022-10-05T19:18:41.061Z,16.10
2022-10-05T19:21:26.377Z,16.10
2022-10-05T19:24:25.062Z,16.10
2022-10-05T19:27:11.389Z,16.10
2022-10-05T19:29:41.052Z,16.00
2022-10-05T19:32:30.384Z,15.80
2022-10-05T19:35:38.042Z,15.50
2022-10-05T19:38:26.415Z,15.10
2022-10-05T19:41:05.809Z,14.70
2022-10-05T20:44:08.606Z,14.30
2022-10-05T20:46:35.834Z,14.30
2022-10-05T20:49:04.640Z,14.20
2022-10-05T20:51:31.330Z,14.10
2022-10-05T20:54:00.394Z,13.90
2022-10-05T20:56:35.448Z,13.70
2022-10-05T21:21:28.517Z,13.40
2022-10-05T21:27:29.517Z,13.40
2022-10-05T21:30:32.992Z,13.40
2022-10-05T21:33:32.195Z,13.40
2022-10-05T21:35:58.853Z,13.30
2022-10-05T21:38:26.050Z,13.30
2022-10-05T21:40:56.289Z,13.30
2022-10-05T21:43:26.244Z,13.30
2022-10-05T21:46:11.320Z,13.30
2022-10-05T21:48:39.664Z,13.30
2022-10-05T21:51:38.888Z,13.20
2022-10-05T21:57:12.219Z,13.10
2022-10-05T21:59:39.905Z,13.00
2022-10-05T22:02:06.547Z,13.00
2022-10-05T22:04:36.202Z,13.00
2022-10-05T22:07:19.261Z,12.90
2022-10-05T22:09:49.593Z,12.90
2022-10-05T22:12:17.169Z,12.90
2022-10-05T22:14:43.823Z,12.90
2022-10-05T22:17:16.543Z,12.90
2022-10-05T22:19:43.252Z,12.90
2022-10-05T22:22:18.810Z,12.90
2022-10-05T22:24:52.177Z,12.90
2022-10-05T22:27:19.993Z,12.90
2022-10-05T22:29:46.956Z,13.00
2022-10-05T22:32:19.695Z,13.00
2022-10-05T22:34:49.139Z,13.00
2022-10-05T22:37:21.241Z,13.00
2022-10-05T22:39:50.176Z,13.00
2022-10-05T22:42:26.916Z,12.90
2022-10-05T22:44:58.224Z,12.90
2022-10-05T22:47:24.916Z,12.90
2022-10-05T22:49:57.188Z,12.90
2022-10-05T22:52:29.665Z,12.90
2022-10-05T22:55:01.761Z,12.90
2022-10-05T22:57:39.027Z,12.90
2022-10-05T23:00:15.298Z,12.90
2022-10-05T23:19:07.794Z,13.10
2022-10-05T23:28:38.505Z,13.10
2022-10-05T23:31:08.486Z,13.10
2022-10-05T23:33:37.727Z,13.10
2022-10-05T23:39:19.756Z,13.10
2022-10-05T23:41:46.443Z,13.00
2022-10-05T23:44:15.536Z,13.00
2022-10-05T23:46:42.550Z,13.00
2022-10-05T23:49:15.083Z,12.90
2022-10-05T23:51:54.013Z,12.90
2022-10-05T23:54:54.200Z,12.90
2022-10-05T23:57:20.942Z,12.90
2022-10-05T23:59:55.864Z,12.80
